Time;durP1;ratioP1;P1;durP2;ratioP2;P2;SDS_P1;SDS_P2;PMS_P1;PMS_P2;Temp;Humidity;BMP_temperature;BMP_pressure;BME280_temperature;BME280_humidity;BME280_pressure;Samples;Min_cycle;Max_cycle;Signal;HPM_P1;HPM_P2
2024/01/27 00:00:31;;;;;;;4.03;1.70;;;;;;;4.95;100.00;102341.22;4959579;28;20286;-71
2024/01/27 00:02:58;;;;;;;6.87;1.70;;;;;;;4.82;100.00;102351.72;4967655;28;20224;-70
2024/01/27 00:05:24;;;;;;;5.53;1.67;;;;;;;4.83;100.00;102359.69;4961659;28;20271;-71
2024/01/27 00:07:54;;;;;;;5.17;1.60;;;;;;;4.75;100.00;102344.19;4966604;28;20576;-70
2024/01/27 00:10:20;;;;;;;8.50;1.63;;;;;;;4.52;100.00;102340.94;4968346;28;20688;-70
2024/01/27 00:12:47;;;;;;;8.20;2.53;;;;;;;4.49;100.00;102355.56;4971567;28;20307;-71
2024/01/27 00:15:13;;;;;;;7.37;1.63;;;;;;;4.52;100.00;102356.69;4962240;28;20202;-70
2024/01/27 00:17:40;;;;;;;4.20;1.77;;;;;;;4.66;100.00;102355.00;4962563;28;20716;-71
2024/01/27 00:20:07;;;;;;;4.07;1.50;;;;;;;4.50;100.00;102358.28;4967273;28;20256;-70
2024/01/27 00:22:33;;;;;;;3.20;1.40;;;;;;;4.34;100.00;102347.50;4967266;28;20225;-70
2024/01/27 00:25:00;;;;;;;5.70;1.80;;;;;;;4.14;100.00;102348.75;4963073;28;20297;-70
2024/01/27 00:27:26;;;;;;;5.90;1.60;;;;;;;3.93;100.00;102352.47;4960193;28;20194;-70
2024/01/27 00:29:53;;;;;;;5.97;1.90;;;;;;;3.67;100.00;102351.50;4964329;28;20208;-70
2024/01/27 00:32:19;;;;;;;5.87;1.63;;;;;;;3.55;100.00;102354.94;4965634;28;20222;-70
2024/01/27 00:34:46;;;;;;;3.37;1.40;;;;;;;3.37;100.00;102354.50;4966189;28;20217;-71
2024/01/27 00:37:12;;;;;;;8.57;2.07;;;;;;;3.26;100.00;102368.53;4954088;28;20734;-71
2024/01/27 00:39:39;;;;;;;3.63;1.57;;;;;;;3.19;100.00;102368.84;4961902;28;20213;-70
2024/01/27 00:42:05;;;;;;;2.73;1.27;;;;;;;3.07;100.00;102364.50;4963723;28;20738;-71
2024/01/27 00:44:32;;;;;;;7.67;1.73;;;;;;;2.93;100.00;102359.03;4963584;28;20613;-71
2024/01/27 00:46:58;;;;;;;3.20;1.50;;;;;;;2.90;100.00;102369.28;4966799;28;20208;-70
2024/01/27 00:49:24;;;;;;;3.50;1.60;;;;;;;2.81;100.00;102370.41;4967750;28;20247;-71
2024/01/27 00:51:51;;;;;;;5.53;1.40;;;;;;;2.75;100.00;102377.75;4967505;28;20259;-71
2024/01/27 00:54:17;;;;;;;2.83;1.60;;;;;;;2.76;100.00;102374.34;4967391;28;20670;-70
2024/01/27 00:56:44;;;;;;;4.43;1.40;;;;;;;2.71;100.00;102370.47;4968020;28;20225;-70
2024/01/27 00:59:10;;;;;;;5.60;1.50;;;;;;;2.68;100.00;102365.00;4969391;28;20201;-70
2024/01/27 01:01:37;;;;;;;4.93;1.40;;;;;;;2.63;100.00;102368.06;4963892;28;20215;-71
2024/01/27 01:04:03;;;;;;;4.27;1.50;;;;;;;2.53;100.00;102368.16;4967655;28;20221;-70
2024/01/27 01:06:30;;;;;;;8.67;1.60;;;;;;;2.40;100.00;102375.06;4965543;28;20244;-70
2024/01/27 01:08:56;;;;;;;4.80;1.87;;;;;;;2.28;100.00;102371.47;4967178;28;20240;-71
2024/01/27 01:11:23;;;;;;;3.93;1.63;;;;;;;2.27;100.00;102381.81;4963711;28;20260;-70
2024/01/27 01:13:49;;;;;;;5.43;1.60;;;;;;;2.20;100.00;102381.34;4966625;28;20233;-71
2024/01/27 01:16:15;;;;;;;5.63;1.73;;;;;;;2.10;100.00;102393.56;4969304;28;20231;-70
2024/01/27 01:18:42;;;;;;;2.87;1.47;;;;;;;2.00;100.00;102393.59;4968975;28;20214;-71
2024/01/27 01:21:08;;;;;;;4.83;1.47;;;;;;;1.99;100.00;102399.63;4975302;28;20697;-70
2024/01/27 01:23:35;;;;;;;8.90;1.67;;;;;;;2.02;100.00;102402.50;4963784;28;20308;-70
2024/01/27 01:26:01;;;;;;;4.70;1.70;;;;;;;2.02;100.00;102410.34;4967945;28;20197;-69
2024/01/27 01:28:28;;;;;;;3.97;1.67;;;;;;;1.97;100.00;102409.94;4970167;28;20242;-69
2024/01/27 01:30:55;;;;;;;4.40;1.57;;;;;;;1.86;100.00;102410.78;4965187;28;20516;-69
2024/01/27 01:33:21;;;;;;;3.43;1.40;;;;;;;1.69;100.00;102411.16;4966368;28;20232;-69
2024/01/27 01:35:47;;;;;;;3.90;1.70;;;;;;;1.59;100.00;102409.47;4967982;28;20241;-70
2024/01/27 01:38:14;;;;;;;5.83;1.47;;;;;;;1.55;100.00;102415.22;4967773;28;20229;-68
2024/01/27 01:40:40;;;;;;;7.53;1.87;;;;;;;1.49;100.00;102423.47;4965817;28;20338;-70
2024/01/27 01:43:11;;;;;;;3.63;1.50;;;;;;;1.41;100.00;102408.88;4962474;28;20242;-70
2024/01/27 01:45:38;;;;;;;2.50;1.40;;;;;;;1.35;100.00;102415.31;4971663;28;20209;-70
2024/01/27 01:48:05;;;;;;;10.70;1.23;;;;;;;1.28;100.00;102412.97;4971246;28;20203;-70
2024/01/27 01:50:32;;;;;;;7.07;1.90;;;;;;;1.20;100.00;102409.69;4965537;28;20209;-70
2024/01/27 01:52:59;;;;;;;3.70;1.50;;;;;;;1.20;100.00;102413.25;4967062;28;20321;-70
2024/01/27 01:55:25;;;;;;;4.33;1.50;;;;;;;1.19;100.00;102416.63;4969980;28;20206;-70
2024/01/27 01:57:54;;;;;;;6.37;1.50;;;;;;;1.22;100.00;102416.00;4968360;28;20225;-70
2024/01/27 02:00:20;;;;;;;9.20;1.77;;;;;;;1.20;100.00;102421.09;4959722;28;20248;-70
2024/01/27 02:02:47;;;;;;;9.00;1.53;;;;;;;1.25;100.00;102424.06;4961920;28;20225;-68
2024/01/27 02:05:14;;;;;;;5.97;1.70;;;;;;;1.25;100.00;102418.84;4962769;28;20202;-67
2024/01/27 02:07:41;;;;;;;7.53;1.40;;;;;;;1.28;100.00;102415.59;4965820;28;20202;-68
2024/01/27 02:10:15;;;;;;;4.47;1.40;;;;;;;1.21;100.00;102427.22;4966585;28;20654;-68
2024/01/27 02:12:43;;;;;;;4.03;1.30;;;;;;;1.16;100.00;102423.28;4962248;28;20240;-68
2024/01/27 02:15:12;;;;;;;4.17;1.70;;;;;;;1.15;100.00;102424.97;4963677;28;20601;-69
2024/01/27 02:17:39;;;;;;;7.47;1.93;;;;;;;1.21;100.00;102427.22;4968039;28;20226;-68
2024/01/27 02:20:07;;;;;;;5.30;1.90;;;;;;;1.06;100.00;102432.03;4967924;28;20693;-68
2024/01/27 02:22:34;;;;;;;2.13;1.60;;;;;;;0.97;100.00;102435.56;4962066;28;20294;-68
2024/01/27 02:25:02;;;;;;;7.23;1.80;;;;;;;1.23;100.00;102443.91;4966762;28;20213;-68
2024/01/27 02:27:28;;;;;;;4.33;2.07;;;;;;;1.11;100.00;102430.72;4963411;28;20202;-68
2024/01/27 02:29:55;;;;;;;10.00;1.97;;;;;;;1.04;100.00;102436.22;4962516;28;20212;-68
2024/01/27 02:32:21;;;;;;;4.93;1.73;;;;;;;0.90;100.00;102445.50;4963394;28;20233;-68
2024/01/27 02:34:48;;;;;;;11.00;2.37;;;;;;;0.86;100.00;102437.28;4960397;28;20834;-68
2024/01/27 02:37:14;;;;;;;2.07;1.70;;;;;;;0.84;100.00;102446.69;4966550;28;20304;-68
2024/01/27 02:39:40;;;;;;;9.77;2.40;;;;;;;0.86;100.00;102445.13;4965169;28;20295;-68
2024/01/27 02:42:07;;;;;;;4.50;1.90;;;;;;;0.89;100.00;102454.09;4958676;28;20230;-68
2024/01/27 02:44:33;;;;;;;2.87;1.93;;;;;;;1.17;100.00;102456.41;4966116;28;20669;-70
2024/01/27 02:46:59;;;;;;;7.77;2.10;;;;;;;0.98;100.00;102453.97;4966349;28;20200;-71
2024/01/27 02:49:26;;;;;;;12.30;2.10;;;;;;;1.04;100.00;102449.25;4962811;28;20482;-70
2024/01/27 02:51:52;;;;;;;7.00;1.90;;;;;;;1.02;100.00;102447.31;4964013;28;20315;-70
2024/01/27 02:54:19;;;;;;;5.73;2.43;;;;;;;0.93;100.00;102450.06;4964267;28;20215;-71
2024/01/27 02:56:45;;;;;;;9.13;2.37;;;;;;;0.71;100.00;102449.00;4959794;28;20383;-71
2024/01/27 02:59:12;;;;;;;7.93;2.10;;;;;;;0.70;100.00;102453.31;4964865;28;20227;-71
2024/01/27 03:01:38;;;;;;;5.23;2.23;;;;;;;0.58;100.00;102470.50;4965090;28;20296;-71
2024/01/27 03:04:05;;;;;;;4.43;1.87;;;;;;;0.51;100.00;102465.53;4965171;28;20202;-68
2024/01/27 03:06:31;;;;;;;6.30;2.00;;;;;;;0.44;100.00;102461.50;4962919;28;20213;-69
2024/01/27 03:08:58;;;;;;;4.87;2.43;;;;;;;0.50;100.00;102466.31;4963699;28;20212;-68
2024/01/27 03:11:25;;;;;;;3.93;1.57;;;;;;;0.38;100.00;102468.75;4964948;28;20300;-69
2024/01/27 03:13:51;;;;;;;7.07;1.97;;;;;;;0.52;100.00;102476.09;4963854;28;20697;-69
2024/01/27 03:16:19;;;;;;;7.33;1.93;;;;;;;0.45;100.00;102468.53;4964370;28;20582;-69
2024/01/27 03:18:46;;;;;;;4.73;1.50;;;;;;;0.40;100.00;102468.88;4967960;28;20277;-69
2024/01/27 03:21:12;;;;;;;6.47;1.57;;;;;;;0.50;100.00;102468.94;4965986;28;20202;-69
2024/01/27 03:23:39;;;;;;;4.90;1.33;;;;;;;0.61;100.00;102473.38;4965714;28;20224;-69
2024/01/27 03:26:05;;;;;;;3.90;1.20;;;;;;;0.49;100.00;102474.94;4964173;28;20198;-69
2024/01/27 03:28:31;;;;;;;2.80;1.73;;;;;;;0.45;100.00;102473.75;4965236;28;20205;-71
2024/01/27 03:30:59;;;;;;;3.77;1.60;;;;;;;0.42;100.00;102480.38;4966414;28;20308;-69
2024/01/27 03:33:29;;;;;;;3.47;1.27;;;;;;;0.28;100.00;102489.59;4966601;28;20243;-68
2024/01/27 03:35:55;;;;;;;2.87;1.40;;;;;;;0.25;100.00;102490.22;4965632;28;20744;-69
2024/01/27 03:38:22;;;;;;;3.70;1.47;;;;;;;0.25;100.00;102489.31;4962601;28;20244;-68
2024/01/27 03:40:48;;;;;;;3.20;1.40;;;;;;;0.29;100.00;102486.19;4965775;28;20205;-69
2024/01/27 03:43:14;;;;;;;6.00;1.53;;;;;;;0.41;100.00;102484.69;4963539;28;20221;-69
2024/01/27 03:45:41;;;;;;;7.90;1.90;;;;;;;0.45;100.00;102489.38;4966059;28;20213;-68
2024/01/27 03:48:07;;;;;;;4.00;1.17;;;;;;;0.43;100.00;102488.34;4963217;28;20207;-69
2024/01/27 03:50:34;;;;;;;5.83;1.73;;;;;;;0.36;100.00;102479.81;4967138;28;20216;-68
2024/01/27 03:53:00;;;;;;;6.53;1.33;;;;;;;0.29;100.00;102494.00;4964623;28;20231;-69
2024/01/27 03:55:27;;;;;;;5.50;1.37;;;;;;;0.18;100.00;102493.06;4966234;28;20212;-69
2024/01/27 03:57:53;;;;;;;3.90;2.17;;;;;;;0.17;100.00;102487.72;4964154;28;20214;-68
2024/01/27 04:00:20;;;;;;;5.20;1.40;;;;;;;0.05;100.00;102491.88;4964645;28;20555;-69
2024/01/27 04:02:46;;;;;;;1.87;1.10;;;;;;;-0.09;100.00;102499.34;4965835;28;20711;-70
2024/01/27 04:05:13;;;;;;;3.07;1.10;;;;;;;-0.24;100.00;102492.75;4963879;28;20209;-69
2024/01/27 04:07:40;;;;;;;4.00;1.60;;;;;;;-0.37;100.00;102482.03;4966905;28;20201;-68
2024/01/27 04:10:06;;;;;;;1.80;1.20;;;;;;;-0.36;100.00;102503.00;4962323;28;20202;-69
2024/01/27 04:12:33;;;;;;;1.67;1.07;;;;;;;-0.29;100.00;102495.72;4965909;28;20240;-69
2024/01/27 04:14:59;;;;;;;13.83;1.87;;;;;;;-0.10;100.00;102505.31;4967082;28;20256;-69
2024/01/27 04:17:26;;;;;;;2.77;1.37;;;;;;;-0.21;100.00;102503.44;4966432;28;20736;-69
2024/01/27 04:19:52;;;;;;;1.87;1.30;;;;;;;-0.23;100.00;102509.28;4968982;28;20218;-69
2024/01/27 04:22:19;;;;;;;3.50;1.57;;;;;;;-0.30;100.00;102515.66;4965578;28;20725;-68
2024/01/27 04:24:45;;;;;;;2.70;1.50;;;;;;;-0.37;100.00;102505.47;4968000;28;20211;-68
2024/01/27 04:27:12;;;;;;;6.20;1.17;;;;;;;-0.49;100.00;102514.72;4972987;28;20204;-69
2024/01/27 04:29:38;;;;;;;3.40;1.70;;;;;;;-0.65;100.00;102510.72;4967006;28;20242;-69
2024/01/27 04:32:05;;;;;;;3.23;1.30;;;;;;;-0.82;100.00;102509.94;4968470;28;20292;-68
2024/01/27 04:34:31;;;;;;;3.40;1.80;;;;;;;-0.83;100.00;102513.31;4969293;28;20702;-68
2024/01/27 04:36:58;;;;;;;2.80;1.17;;;;;;;-0.86;100.00;102518.22;4968690;28;20299;-68
2024/01/27 04:39:24;;;;;;;7.83;1.10;;;;;;;-0.82;100.00;102513.44;4966846;28;20205;-69
2024/01/27 04:41:51;;;;;;;5.43;1.27;;;;;;;-0.89;100.00;102505.84;4969486;28;20637;-68
2024/01/27 04:44:20;;;;;;;2.83;1.30;;;;;;;-0.82;100.00;102515.13;4972067;28;20244;-68
2024/01/27 04:46:46;;;;;;;5.17;1.30;;;;;;;-0.90;100.00;102522.22;4967861;28;20229;-69
2024/01/27 04:49:14;;;;;;;9.37;1.90;;;;;;;-0.98;100.00;102520.59;4968822;28;20735;-69
2024/01/27 04:51:41;;;;;;;2.70;1.50;;;;;;;-1.01;100.00;102517.72;4968812;28;20205;-69
2024/01/27 04:54:08;;;;;;;3.27;1.13;;;;;;;-0.96;100.00;102519.06;4969606;28;20204;-69
2024/01/27 04:56:35;;;;;;;8.97;2.50;;;;;;;-0.91;100.00;102517.78;4966638;28;20204;-69
2024/01/27 04:59:02;;;;;;;5.53;1.23;;;;;;;-0.98;100.00;102513.72;4965961;28;20248;-68
2024/01/27 05:01:29;;;;;;;1.10;1.00;;;;;;;-0.86;100.00;102529.53;4966282;28;20219;-68
2024/01/27 05:03:55;;;;;;;3.23;1.30;;;;;;;-0.84;100.00;102522.78;4970042;28;20240;-69
2024/01/27 05:06:22;;;;;;;3.37;1.43;;;;;;;-0.70;100.00;102526.69;4966500;28;20348;-69
2024/01/27 05:08:48;;;;;;;5.00;1.07;;;;;;;-0.51;100.00;102530.19;4966826;28;20203;-68
2024/01/27 05:11:24;;;;;;;1.90;1.00;;;;;;;-0.38;100.00;102527.06;4966613;28;20234;-68
2024/01/27 05:13:50;;;;;;;5.53;1.80;;;;;;;-0.32;100.00;102531.13;4970733;28;20247;-68
2024/01/27 05:16:17;;;;;;;2.37;1.17;;;;;;;-0.39;100.00;102535.63;4968906;28;20700;-69
2024/01/27 05:18:43;;;;;;;2.83;1.30;;;;;;;-0.52;100.00;102530.06;4965888;28;20219;-69
2024/01/27 05:21:10;;;;;;;8.83;2.97;;;;;;;-0.51;100.00;102535.41;4962065;28;20293;-69
2024/01/27 05:23:36;;;;;;;1.77;1.20;;;;;;;-0.46;100.00;102541.94;4967887;28;20246;-69
2024/01/27 05:26:05;;;;;;;2.00;1.20;;;;;;;-0.55;100.00;102541.09;4967437;28;20293;-68
2024/01/27 05:28:32;;;;;;;8.23;3.07;;;;;;;-0.58;100.00;102538.22;4966334;28;20686;-69
2024/01/27 05:30:58;;;;;;;1.30;0.90;;;;;;;-0.53;100.00;102546.44;4966663;28;20298;-68
2024/01/27 05:33:24;;;;;;;2.87;1.20;;;;;;;-0.56;100.00;102548.78;4965862;28;20238;-69
2024/01/27 05:35:53;;;;;;;2.77;1.40;;;;;;;-0.63;100.00;102548.22;4969198;28;20199;-69
2024/01/27 05:38:20;;;;;;;6.37;1.60;;;;;;;-0.62;100.00;102549.13;4967682;28;20561;-69
2024/01/27 05:40:49;;;;;;;1.87;1.13;;;;;;;-0.56;100.00;102557.50;4968422;28;20210;-69
2024/01/27 05:43:15;;;;;;;1.40;1.20;;;;;;;-0.71;100.00;102561.28;4965974;28;20234;-69
2024/01/27 05:45:41;;;;;;;3.07;1.43;;;;;;;-0.87;100.00;102556.31;4967805;28;20198;-69
2024/01/27 05:48:08;;;;;;;6.30;1.70;;;;;;;-1.03;100.00;102555.66;4966262;28;20429;-69
2024/01/27 05:50:35;;;;;;;8.07;2.77;;;;;;;-1.16;100.00;102561.41;4965318;28;20254;-69
2024/01/27 05:53:02;;;;;;;5.77;1.40;;;;;;;-1.24;100.00;102561.41;4963157;28;20237;-69
2024/01/27 05:55:28;;;;;;;3.70;1.07;;;;;;;-1.39;100.00;102556.59;4969335;28;20755;-69
2024/01/27 05:57:57;;;;;;;1.80;1.23;;;;;;;-1.44;100.00;102556.94;4967832;28;20227;-70
2024/01/27 06:00:23;;;;;;;4.70;1.33;;;;;;;-1.46;100.00;102545.47;4968315;28;20199;-69
2024/01/27 06:02:49;;;;;;;5.40;1.00;;;;;;;-1.05;100.00;102550.31;4965871;28;20225;-69
2024/01/27 06:05:16;;;;;;;2.27;1.47;;;;;;;-1.08;100.00;102565.63;4966723;28;20202;-70
2024/01/27 06:07:42;;;;;;;2.37;1.03;;;;;;;-1.22;100.00;102573.78;4970991;28;20218;-70
2024/01/27 06:10:09;;;;;;;2.30;1.33;;;;;;;-1.33;100.00;102575.38;4970749;28;20200;-70
2024/01/27 06:12:38;;;;;;;2.30;1.50;;;;;;;-1.39;100.00;102590.38;4972341;28;20266;-69
2024/01/27 06:15:05;;;;;;;1.80;1.40;;;;;;;-1.48;100.00;102586.91;4970901;28;20221;-70
2024/01/27 06:17:32;;;;;;;5.70;1.63;;;;;;;-1.52;100.00;102586.47;4966384;28;20229;-69
2024/01/27 06:19:58;;;;;;;4.33;1.17;;;;;;;-1.61;100.00;102584.78;4969401;28;20645;-69
2024/01/27 06:22:25;;;;;;;3.33;1.10;;;;;;;-1.69;100.00;102583.13;4969781;28;20274;-69
2024/01/27 06:24:51;;;;;;;2.23;1.20;;;;;;;-1.76;100.00;102588.50;4969413;28;20217;-69
2024/01/27 06:27:18;;;;;;;2.10;1.73;;;;;;;-1.81;100.00;102594.00;4971105;28;20206;-69
2024/01/27 06:29:44;;;;;;;7.77;2.83;;;;;;;-1.96;100.00;102578.78;4970783;28;20730;-70
2024/01/27 06:32:11;;;;;;;6.87;2.77;;;;;;;-1.92;100.00;102599.06;4967525;28;20219;-70
2024/01/27 06:34:39;;;;;;;3.53;1.57;;;;;;;-1.90;100.00;102601.81;4969916;28;20722;-70
2024/01/27 06:37:05;;;;;;;3.13;1.20;;;;;;;-2.00;100.00;102571.44;4970927;28;20210;-69
2024/01/27 06:39:32;;;;;;;6.57;2.87;;;;;;;-1.92;100.00;102591.28;4967133;28;20226;-69
2024/01/27 06:41:58;;;;;;;2.97;1.30;;;;;;;-1.95;100.00;102592.66;4968929;28;20220;-70
2024/01/27 06:44:25;;;;;;;1.63;1.30;;;;;;;-1.95;100.00;102580.59;4968418;28;20222;-69
2024/01/27 06:46:51;;;;;;;3.53;1.57;;;;;;;-1.85;100.00;102579.81;4969898;28;20210;-71
2024/01/27 06:49:17;;;;;;;5.23;1.57;;;;;;;-1.82;100.00;102587.91;4970251;28;20200;-69
2024/01/27 06:51:44;;;;;;;3.67;1.60;;;;;;;-1.74;100.00;102589.56;4967642;28;20256;-70
2024/01/27 06:54:11;;;;;;;4.73;1.63;;;;;;;-1.43;100.00;102592.53;4968858;28;20202;-68
2024/01/27 06:56:38;;;;;;;6.37;1.60;;;;;;;-1.57;100.00;102596.41;4967996;28;20646;-69
2024/01/27 06:59:04;;;;;;;1.87;0.93;;;;;;;-1.67;100.00;102588.47;4966661;28;20226;-70
2024/01/27 07:01:30;;;;;;;3.03;1.20;;;;;;;-1.73;100.00;102595.66;4962389;28;20222;-70
2024/01/27 07:03:57;;;;;;;2.80;1.30;;;;;;;-1.82;100.00;102592.19;4960191;28;20211;-71
2024/01/27 07:06:24;;;;;;;7.17;2.60;;;;;;;-1.91;100.00;102589.59;4969596;28;20207;-71
2024/01/27 07:08:50;;;;;;;4.80;2.40;;;;;;;-1.93;100.00;102592.06;4969718;28;20234;-70
2024/01/27 07:11:16;;;;;;;7.23;2.80;;;;;;;-1.93;100.00;102581.66;4967547;28;20202;-69
2024/01/27 07:13:43;;;;;;;6.87;2.70;;;;;;;-1.90;100.00;102592.34;4972654;28;20257;-71
2024/01/27 07:16:10;;;;;;;4.77;2.83;;;;;;;-1.91;100.00;102593.13;4969807;28;20242;-70
2024/01/27 07:18:36;;;;;;;7.37;2.90;;;;;;;-1.91;100.00;102584.41;4970210;28;20222;-70
2024/01/27 07:21:03;;;;;;;2.43;1.73;;;;;;;-1.92;100.00;102582.59;4968694;28;20286;-70
2024/01/27 07:23:35;;;;;;;7.07;2.73;;;;;;;-1.93;100.00;102588.53;4970120;28;20313;-70
2024/01/27 07:26:03;;;;;;;5.20;1.57;;;;;;;-1.88;100.00;102589.00;4963009;28;20204;-71
2024/01/27 07:28:29;;;;;;;2.47;1.37;;;;;;;-1.87;100.00;102589.13;4966721;28;20265;-70
2024/01/27 07:30:56;;;;;;;7.40;3.23;;;;;;;-1.84;100.00;102604.09;4969857;28;20203;-71
2024/01/27 07:33:22;;;;;;;2.87;1.40;;;;;;;-1.87;100.00;102591.72;4961844;28;20246;-72
2024/01/27 07:35:49;;;;;;;4.40;1.47;;;;;;;-1.81;100.00;102605.31;4965514;28;20215;-69
2024/01/27 07:38:15;;;;;;;5.27;1.70;;;;;;;-1.80;100.00;102612.34;4961649;28;20217;-69
2024/01/27 07:40:42;;;;;;;4.20;2.17;;;;;;;-1.80;100.00;102612.34;4960422;28;20296;-69
2024/01/27 07:43:08;;;;;;;2.73;1.50;;;;;;;-1.76;100.00;102618.75;4960648;28;20792;-68
2024/01/27 07:45:34;;;;;;;2.07;1.60;;;;;;;-1.73;100.00;102613.84;4963131;28;20206;-70
2024/01/27 07:48:01;;;;;;;2.93;1.80;;;;;;;-1.72;100.00;102619.19;4968042;28;20196;-69
2024/01/27 07:50:28;;;;;;;4.40;1.77;;;;;;;-1.74;100.00;102619.81;4957811;28;20312;-70
2024/01/27 07:52:54;;;;;;;8.60;2.00;;;;;;;-1.65;100.00;102629.41;4956536;28;20227;-70
2024/01/27 07:55:21;;;;;;;8.10;3.60;;;;;;;-1.60;100.00;102629.88;4963494;28;20210;-70
2024/01/27 07:57:47;;;;;;;2.73;1.73;;;;;;;-1.53;100.00;102632.31;4957922;28;20207;-70
2024/01/27 08:00:14;;;;;;;3.57;1.70;;;;;;;-1.49;100.00;102631.84;4965957;28;20209;-70
2024/01/27 08:02:41;;;;;;;4.60;2.40;;;;;;;-1.38;100.00;102633.78;4965041;28;20264;-70
2024/01/27 08:05:08;;;;;;;5.27;2.63;;;;;;;-1.29;100.00;102629.47;4958233;28;20254;-70
2024/01/27 08:07:35;;;;;;;8.27;2.73;;;;;;;-1.23;100.00;102626.53;4956132;28;20306;-70
2024/01/27 08:10:03;;;;;;;6.77;2.87;;;;;;;-0.86;100.00;102623.16;4965170;28;20662;-70
2024/01/27 08:12:30;;;;;;;9.40;4.83;;;;;;;-0.87;100.00;102610.03;4967419;28;20231;-70
2024/01/27 08:14:56;;;;;;;9.50;4.70;;;;;;;-0.78;100.00;102613.53;4961807;28;20594;-70
2024/01/27 08:17:23;;;;;;;3.83;2.50;;;;;;;-0.73;100.00;102617.47;4961363;28;20271;-70
2024/01/27 08:19:49;;;;;;;5.43;2.07;;;;;;;-0.74;100.00;102613.03;4961961;28;20225;-71
2024/01/27 08:22:16;;;;;;;3.60;2.50;;;;;;;-0.70;100.00;102616.06;4964821;28;20311;-70
2024/01/27 08:24:42;;;;;;;8.30;2.83;;;;;;;-0.65;100.00;102612.19;4966269;28;20221;-70
2024/01/27 08:27:09;;;;;;;3.47;2.50;;;;;;;-0.61;100.00;102617.69;4965383;28;20203;-70
2024/01/27 08:29:35;;;;;;;5.43;2.97;;;;;;;-0.52;100.00;102623.75;4962175;28;20291;-70
2024/01/27 08:32:02;;;;;;;5.27;2.30;;;;;;;-0.45;100.00;102620.94;4963136;28;20230;-71
2024/01/27 08:34:28;;;;;;;5.60;2.33;;;;;;;-0.32;100.00;102623.94;4963730;28;20683;-70
2024/01/27 08:37:02;;;;;;;4.90;1.80;;;;;;;-0.25;100.00;102623.72;4960276;28;20215;-69
2024/01/27 08:39:28;;;;;;;8.23;2.10;;;;;;;-0.09;100.00;102620.81;4961575;28;20242;-69
2024/01/27 08:41:54;;;;;;;4.27;1.77;;;;;;;-0.01;100.00;102619.81;4965157;28;20806;-70
2024/01/27 08:44:21;;;;;;;4.53;1.87;;;;;;;0.05;100.00;102614.28;4967779;28;20789;-70
2024/01/27 08:46:47;;;;;;;7.83;3.27;;;;;;;0.11;100.00;102613.16;4959083;28;20206;-70
2024/01/27 08:49:14;;;;;;;2.83;1.90;;;;;;;0.24;100.00;102620.38;4965393;28;20202;-70
2024/01/27 08:51:40;;;;;;;2.13;1.43;;;;;;;0.29;100.00;102635.63;4963395;28;20275;-70
2024/01/27 08:54:07;;;;;;;3.47;1.70;;;;;;;0.32;100.00;102633.31;4959721;28;20216;-69
2024/01/27 08:56:33;;;;;;;4.70;1.73;;;;;;;0.46;100.00;102636.25;4965506;28;20209;-71
2024/01/27 08:58:59;;;;;;;4.17;1.93;;;;;;;0.44;100.00;102619.56;4964409;28;20327;-69
2024/01/27 09:01:26;;;;;;;4.10;1.60;;;;;;;0.63;100.00;102633.47;4961930;28;20211;-68
2024/01/27 09:03:52;;;;;;;2.60;1.33;;;;;;;0.62;100.00;102635.16;4965588;28;20232;-69
2024/01/27 09:06:19;;;;;;;3.10;1.40;;;;;;;0.66;100.00;102645.84;4968125;28;20205;-69
2024/01/27 09:08:46;;;;;;;11.07;2.07;;;;;;;0.69;100.00;102652.25;4970460;28;20196;-69
2024/01/27 09:11:12;;;;;;;4.07;1.73;;;;;;;0.73;100.00;102658.66;4966244;28;20202;-69
2024/01/27 09:13:38;;;;;;;8.07;2.50;;;;;;;0.86;100.00;102665.13;4970818;28;20225;-69
2024/01/27 09:16:05;;;;;;;4.97;2.47;;;;;;;0.99;100.00;102667.09;4962083;28;20205;-69
2024/01/27 09:18:32;;;;;;;3.67;1.87;;;;;;;1.03;100.00;102642.19;4965677;28;20311;-69
2024/01/27 09:20:59;;;;;;;5.87;1.70;;;;;;;1.14;100.00;102668.44;4975238;28;20273;-69
2024/01/27 09:23:25;;;;;;;12.83;2.47;;;;;;;1.20;100.00;102662.84;4969992;28;20273;-71
2024/01/27 09:25:52;;;;;;;7.13;2.50;;;;;;;1.24;100.00;102645.00;4982060;28;20308;-69
2024/01/27 09:28:18;;;;;;;5.07;2.50;;;;;;;1.49;100.00;102663.66;4969659;28;20231;-69
2024/01/27 09:30:45;;;;;;;7.43;2.70;;;;;;;1.61;100.00;102658.59;4969632;28;20305;-69
2024/01/27 09:33:12;;;;;;;5.13;2.80;;;;;;;1.69;100.00;102630.53;4970978;28;20732;-69
2024/01/27 09:35:38;;;;;;;8.00;3.13;;;;;;;1.84;100.00;102640.56;4971609;28;20202;-69
2024/01/27 09:38:07;;;;;;;11.13;3.23;;;;;;;1.78;100.00;102637.44;4966983;28;20201;-69
2024/01/27 09:40:34;;;;;;;6.80;2.97;;;;;;;1.88;100.00;102647.88;4966837;28;20193;-68
2024/01/27 09:43:00;;;;;;;7.80;3.90;;;;;;;2.04;100.00;102652.69;4970237;28;20277;-69
2024/01/27 09:45:27;;;;;;;8.50;3.27;;;;;;;2.12;100.00;102654.25;4972043;28;20202;-69
2024/01/27 09:47:57;;;;;;;9.70;3.70;;;;;;;2.23;100.00;102657.75;4971522;28;20286;-69
2024/01/27 09:50:24;;;;;;;8.50;3.90;;;;;;;2.32;100.00;102662.81;4963897;28;20208;-69
2024/01/27 09:52:51;;;;;;;13.03;3.90;;;;;;;2.40;100.00;102654.84;4970821;28;20309;-68
2024/01/27 09:55:17;;;;;;;11.00;3.50;;;;;;;2.54;100.00;102649.81;4972285;28;20207;-68
2024/01/27 09:57:44;;;;;;;9.07;3.33;;;;;;;2.65;100.00;102647.28;4971673;28;20203;-68
2024/01/27 10:00:11;;;;;;;8.23;2.60;;;;;;;2.78;100.00;102654.41;4963856;28;20732;-68
2024/01/27 10:02:40;;;;;;;5.87;2.30;;;;;;;2.90;100.00;102654.50;4968702;28;20305;-68
2024/01/27 10:05:11;;;;;;;5.63;2.27;;;;;;;3.02;100.00;102645.94;4971807;28;20219;-68
2024/01/27 10:07:37;;;;;;;4.70;2.13;;;;;;;3.09;100.00;102645.63;4971294;28;20422;-68
2024/01/27 10:10:05;;;;;;;6.23;2.90;;;;;;;3.13;100.00;102636.31;4969932;28;20201;-68
2024/01/27 10:12:38;;;;;;;5.67;2.50;;;;;;;3.12;100.00;102635.38;4971839;28;20766;-67
2024/01/27 10:15:05;;;;;;;7.97;2.60;;;;;;;3.30;100.00;102635.94;4971097;28;20204;-68
2024/01/27 10:17:36;;;;;;;10.87;3.07;;;;;;;3.33;100.00;102641.41;4970830;28;20295;-68
2024/01/27 10:20:04;;;;;;;7.73;2.67;;;;;;;3.38;100.00;102637.44;4969789;28;20229;-68
2024/01/27 10:22:38;;;;;;;6.73;3.10;;;;;;;3.51;100.00;102635.78;4970442;28;20769;-68
2024/01/27 10:25:06;;;;;;;8.07;2.60;;;;;;;3.67;100.00;102620.47;4971255;28;20284;-68
2024/01/27 10:27:32;;;;;;;9.87;2.83;;;;;;;3.70;100.00;102624.22;4970905;28;20210;-68
2024/01/27 10:29:59;;;;;;;8.17;3.07;;;;;;;3.72;100.00;102622.66;4965069;28;20202;-68
2024/01/27 10:32:26;;;;;;;7.90;2.40;;;;;;;3.73;100.00;102614.00;4969951;28;20236;-68
2024/01/27 10:35:05;;;;;;;8.33;2.77;;;;;;;3.81;100.00;102609.31;4971018;28;20275;-68
2024/01/27 10:37:31;;;;;;;8.73;3.13;;;;;;;3.93;100.00;102604.09;4969076;28;20215;-68
2024/01/27 10:40:07;;;;;;;5.57;2.70;;;;;;;3.99;100.00;102592.34;4970017;28;20705;-68
2024/01/27 10:42:36;;;;;;;7.30;3.20;;;;;;;4.13;100.00;102602.97;4970335;28;20233;-68
2024/01/27 10:45:04;;;;;;;9.37;3.17;;;;;;;4.19;100.00;102601.72;4970712;28;20214;-68
2024/01/27 10:47:32;;;;;;;6.63;2.77;;;;;;;4.30;100.00;102599.88;4970100;28;20272;-69
2024/01/27 10:50:00;;;;;;;8.33;2.80;;;;;;;4.34;100.00;102588.81;4970638;28;20651;-68
2024/01/27 10:52:34;;;;;;;7.20;2.70;;;;;;;4.44;100.00;102585.19;4969304;28;20225;-69
2024/01/27 10:55:06;;;;;;;7.50;2.90;;;;;;;4.44;100.00;102588.72;4970658;28;20209;-68
2024/01/27 10:57:33;;;;;;;6.50;3.03;;;;;;;4.55;100.00;102592.13;4970834;28;20284;-68
2024/01/27 11:00:05;;;;;;;7.63;3.13;;;;;;;4.62;100.00;102589.13;4965347;28;20773;-68
2024/01/27 11:02:34;;;;;;;7.67;2.70;;;;;;;4.76;100.00;102582.25;4970320;28;20267;-68
2024/01/27 11:05:03;;;;;;;4.37;2.50;;;;;;;4.87;100.00;102583.94;4970488;28;20659;-69
2024/01/27 11:07:34;;;;;;;7.10;2.90;;;;;;;5.00;100.00;102589.25;4970402;28;20223;-68
2024/01/27 11:10:00;;;;;;;8.97;2.90;;;;;;;5.02;100.00;102583.31;4968966;28;20205;-68
2024/01/27 11:12:28;;;;;;;9.03;3.10;;;;;;;5.10;100.00;102585.56;4970082;28;20226;-69
2024/01/27 11:14:58;;;;;;;9.83;3.50;;;;;;;5.17;100.00;102590.44;4979510;28;20203;-69
2024/01/27 11:17:25;;;;;;;8.83;3.03;;;;;;;5.21;100.00;102600.38;4970450;28;20213;-69
2024/01/27 11:19:51;;;;;;;6.60;3.40;;;;;;;5.23;100.00;102589.19;4969793;28;20730;-68